sensor_id;sensor_type;location;lat;lon;timestamp;P1;durP1;ratioP1;P2;durP2;ratioP2
60718;SDS011;46567;51.660;5.824;2023-02-15T00:03:01;26.1;;;14.2;;
60718;SDS011;46567;51.660;5.824;2023-02-15T00:08:01;29.2;;;15.4;;
60718;SDS011;46567;51.660;5.824;2023-02-15T00:13:01;22.1;;;12.7;;
60718;SDS011;46567;51.660;5.824;2023-02-15T00:18:01;24.7;;;13.0;;
60718;SDS011;46567;51.660;5.824;2023-02-15T00:23:01;22.0;;;12.4;;
60718;SDS011;46567;51.660;5.824;2023-02-15T00:28:01;22.9;;;13.3;;
60718;SDS011;46567;51.660;5.824;2023-02-15T00:33:01;24.8;;;13.4;;
60718;SDS011;46567;51.660;5.824;2023-02-15T00:38:01;20.9;;;12.7;;
60718;SDS011;46567;51.660;5.824;2023-02-15T00:43:01;25.2;;;13.8;;
60718;SDS011;46567;51.660;5.824;2023-02-15T00:48:01;27.4;;;14.7;;
60718;SDS011;46567;51.660;5.824;2023-02-15T00:53:01;25.5;;;14.2;;
60718;SDS011;46567;51.660;5.824;2023-02-15T00:58:01;26.5;;;13.1;;
60718;SDS011;46567;51.660;5.824;2023-02-15T01:03:01;22.9;;;13.6;;
60718;SDS011;46567;51.660;5.824;2023-02-15T01:08:01;26.2;;;14.1;;
60718;SDS011;46567;51.660;5.824;2023-02-15T01:13:01;24.9;;;12.6;;
60718;SDS011;46567;51.660;5.824;2023-02-15T01:18:01;26.5;;;13.0;;
60718;SDS011;46567;51.660;5.824;2023-02-15T01:23:01;23.1;;;13.3;;
60718;SDS011;46567;51.660;5.824;2023-02-15T01:28:01;23.8;;;13.7;;
60718;SDS011;46567;51.660;5.824;2023-02-15T01:33:01;22.6;;;13.7;;
60718;SDS011;46567;51.660;5.824;2023-02-15T01:38:01;24.2;;;12.6;;
60718;SDS011;46567;51.660;5.824;2023-02-15T01:43:01;25.1;;;13.3;;
60718;SDS011;46567;51.660;5.824;2023-02-15T01:48:17;21.5;;;12.7;;
60718;SDS011;46567;51.660;5.824;2023-02-15T01:53:06;23.6;;;12.3;;
60718;SDS011;46567;51.660;5.824;2023-02-15T01:58:01;22.8;;;12.8;;
60718;SDS011;46567;51.660;5.824;2023-02-15T02:03:01;21.2;;;12.3;;
60718;SDS011;46567;51.660;5.824;2023-02-15T02:08:01;25.2;;;13.4;;
60718;SDS011;46567;51.660;5.824;2023-02-15T02:13:02;24.3;;;13.2;;
60718;SDS011;46567;51.660;5.824;2023-02-15T02:18:36;22.3;;;12.6;;
60718;SDS011;46567;51.660;5.824;2023-02-15T02:25:24;21.6;;;12.0;;
60718;SDS011;46567;51.660;5.824;2023-02-15T02:32:17;23.4;;;12.9;;
60718;SDS011;46567;51.660;5.824;2023-02-15T02:36:55;22.5;;;13.0;;
60718;SDS011;46567;51.660;5.824;2023-02-15T02:42:18;23.9;;;13.0;;
60718;SDS011;46567;51.660;5.824;2023-02-15T02:46:20;27.0;;;13.2;;
60718;SDS011;46567;51.660;5.824;2023-02-15T02:48:40;22.8;;;13.3;;
60718;SDS011;46567;51.660;5.824;2023-02-15T02:53:01;27.1;;;13.7;;
60718;SDS011;46567;51.660;5.824;2023-02-15T02:58:05;24.1;;;12.9;;
60718;SDS011;46567;51.660;5.824;2023-02-15T03:03:02;23.8;;;12.3;;
60718;SDS011;46567;51.660;5.824;2023-02-15T03:08:01;28.3;;;12.6;;
60718;SDS011;46567;51.660;5.824;2023-02-15T03:13:01;25.6;;;13.3;;
60718;SDS011;46567;51.660;5.824;2023-02-15T03:18:02;24.1;;;11.9;;
60718;SDS011;46567;51.660;5.824;2023-02-15T03:23:02;25.9;;;13.3;;
60718;SDS011;46567;51.660;5.824;2023-02-15T03:28:02;26.0;;;12.2;;
60718;SDS011;46567;51.660;5.824;2023-02-15T03:33:01;24.9;;;12.4;;
60718;SDS011;46567;51.660;5.824;2023-02-15T03:38:04;23.1;;;12.4;;
60718;SDS011;46567;51.660;5.824;2023-02-15T03:43:01;23.7;;;12.0;;
60718;SDS011;46567;51.660;5.824;2023-02-15T03:48:01;19.8;;;10.8;;
60718;SDS011;46567;51.660;5.824;2023-02-15T03:53:01;21.5;;;11.5;;
60718;SDS011;46567;51.660;5.824;2023-02-15T03:58:01;20.7;;;11.5;;
60718;SDS011;46567;51.660;5.824;2023-02-15T04:03:09;20.5;;;12.0;;
60718;SDS011;46567;51.660;5.824;2023-02-15T04:08:01;21.9;;;11.9;;
60718;SDS011;46567;51.660;5.824;2023-02-15T04:13:01;22.9;;;12.1;;
60718;SDS011;46567;51.660;5.824;2023-02-15T04:18:02;22.7;;;12.0;;
60718;SDS011;46567;51.660;5.824;2023-02-15T04:23:01;23.4;;;12.5;;
60718;SDS011;46567;51.660;5.824;2023-02-15T04:28:01;22.8;;;12.7;;
60718;SDS011;46567;51.660;5.824;2023-02-15T04:33:01;21.5;;;11.4;;
60718;SDS011;46567;51.660;5.824;2023-02-15T04:38:01;24.0;;;12.5;;
60718;SDS011;46567;51.660;5.824;2023-02-15T04:43:01;24.8;;;12.3;;
60718;SDS011;46567;51.660;5.824;2023-02-15T04:48:01;19.6;;;11.1;;
60718;SDS011;46567;51.660;5.824;2023-02-15T04:53:01;22.2;;;11.7;;
60718;SDS011;46567;51.660;5.824;2023-02-15T04:58:01;24.6;;;11.6;;
60718;SDS011;46567;51.660;5.824;2023-02-15T05:03:01;23.5;;;12.9;;
60718;SDS011;46567;51.660;5.824;2023-02-15T05:08:01;24.2;;;12.8;;
60718;SDS011;46567;51.660;5.824;2023-02-15T05:13:01;24.4;;;13.7;;
60718;SDS011;46567;51.660;5.824;2023-02-15T05:18:01;24.7;;;12.6;;
60718;SDS011;46567;51.660;5.824;2023-02-15T05:23:01;27.1;;;13.9;;
60718;SDS011;46567;51.660;5.824;2023-02-15T05:28:01;30.1;;;14.5;;
60718;SDS011;46567;51.660;5.824;2023-02-15T05:33:01;28.0;;;13.8;;
60718;SDS011;46567;51.660;5.824;2023-02-15T05:38:01;27.9;;;14.6;;
60718;SDS011;46567;51.660;5.824;2023-02-15T05:43:01;27.9;;;14.1;;
60718;SDS011;46567;51.660;5.824;2023-02-15T05:48:01;25.3;;;13.8;;
60718;SDS011;46567;51.660;5.824;2023-02-15T05:53:01;28.9;;;14.5;;
60718;SDS011;46567;51.660;5.824;2023-02-15T05:58:01;27.2;;;13.7;;
60718;SDS011;46567;51.660;5.824;2023-02-15T06:03:01;27.4;;;13.8;;
60718;SDS011;46567;51.660;5.824;2023-02-15T06:08:01;29.1;;;15.2;;
60718;SDS011;46567;51.660;5.824;2023-02-15T06:13:01;29.3;;;14.0;;
60718;SDS011;46567;51.660;5.824;2023-02-15T06:18:01;30.2;;;14.4;;
60718;SDS011;46567;51.660;5.824;2023-02-15T06:23:01;30.1;;;14.2;;
60718;SDS011;46567;51.660;5.824;2023-02-15T06:28:01;26.8;;;14.1;;
60718;SDS011;46567;51.660;5.824;2023-02-15T06:33:01;25.2;;;12.8;;
60718;SDS011;46567;51.660;5.824;2023-02-15T06:38:01;28.5;;;14.5;;
60718;SDS011;46567;51.660;5.824;2023-02-15T06:43:01;28.8;;;15.1;;
60718;SDS011;46567;51.660;5.824;2023-02-15T06:48:01;26.9;;;14.5;;
60718;SDS011;46567;51.660;5.824;2023-02-15T06:53:01;27.4;;;14.8;;
60718;SDS011;46567;51.660;5.824;2023-02-15T06:58:01;31.0;;;15.7;;
60718;SDS011;46567;51.660;5.824;2023-02-15T07:03:01;33.8;;;16.1;;
60718;SDS011;46567;51.660;5.824;2023-02-15T07:08:01;30.6;;;15.1;;
60718;SDS011;46567;51.660;5.824;2023-02-15T07:13:01;30.3;;;15.0;;
60718;SDS011;46567;51.660;5.824;2023-02-15T07:18:01;30.6;;;15.4;;
60718;SDS011;46567;51.660;5.824;2023-02-15T07:23:01;32.5;;;15.3;;
60718;SDS011;46567;51.660;5.824;2023-02-15T07:28:01;35.7;;;16.0;;
60718;SDS011;46567;51.660;5.824;2023-02-15T07:33:01;36.3;;;17.3;;
60718;SDS011;46567;51.660;5.824;2023-02-15T07:38:01;37.5;;;17.8;;
60718;SDS011;46567;51.660;5.824;2023-02-15T07:43:01;38.9;;;18.4;;
60718;SDS011;46567;51.660;5.824;2023-02-15T07:48:01;37.7;;;17.8;;
60718;SDS011;46567;51.660;5.824;2023-02-15T07:53:01;39.6;;;18.4;;
60718;SDS011;46567;51.660;5.824;2023-02-15T07:58:01;40.8;;;19.4;;
60718;SDS011;46567;51.660;5.824;2023-02-15T08:03:01;34.7;;;17.8;;
60718;SDS011;46567;51.660;5.824;2023-02-15T08:08:01;36.1;;;17.6;;
60718;SDS011;46567;51.660;5.824;2023-02-15T08:13:01;39.6;;;18.9;;
60718;SDS011;46567;51.660;5.824;2023-02-15T08:18:01;36.5;;;18.4;;
60718;SDS011;46567;51.660;5.824;2023-02-15T08:23:01;33.7;;;18.0;;
60718;SDS011;46567;51.660;5.824;2023-02-15T08:28:01;33.9;;;17.4;;
60718;SDS011;46567;51.660;5.824;2023-02-15T08:33:01;38.2;;;18.3;;
60718;SDS011;46567;51.660;5.824;2023-02-15T08:38:01;35.4;;;17.8;;
60718;SDS011;46567;51.660;5.824;2023-02-15T08:43:01;38.6;;;19.0;;
60718;SDS011;46567;51.660;5.824;2023-02-15T08:48:01;35.2;;;18.8;;
60718;SDS011;46567;51.660;5.824;2023-02-15T08:53:01;40.2;;;20.0;;
60718;SDS011;46567;51.660;5.824;2023-02-15T08:58:01;38.3;;;19.3;;
60718;SDS011;46567;51.660;5.824;2023-02-15T09:03:01;38.5;;;21.1;;
60718;SDS011;46567;51.660;5.824;2023-02-15T09:08:01;39.6;;;20.7;;
60718;SDS011;46567;51.660;5.824;2023-02-15T09:13:01;39.0;;;20.9;;
60718;SDS011;46567;51.660;5.824;2023-02-15T09:18:01;40.0;;;20.6;;
60718;SDS011;46567;51.660;5.824;2023-02-15T09:23:01;40.3;;;21.0;;
60718;SDS011;46567;51.660;5.824;2023-02-15T09:28:01;38.1;;;19.4;;
60718;SDS011;46567;51.660;5.824;2023-02-15T09:33:01;40.9;;;20.2;;
60718;SDS011;46567;51.660;5.824;2023-02-15T09:38:01;36.8;;;19.9;;
60718;SDS011;46567;51.660;5.824;2023-02-15T09:43:42;41.4;;;21.1;;
60718;SDS011;46567;51.660;5.824;2023-02-15T09:49:20;38.5;;;20.2;;
60718;SDS011;46567;51.660;5.824;2023-02-15T09:55:14;41.7;;;20.6;;
60718;SDS011;46567;51.660;5.824;2023-02-15T10:00:47;36.7;;;20.9;;
60718;SDS011;46567;51.660;5.824;2023-02-15T10:06:51;43.0;;;21.2;;
60718;SDS011;46567;51.660;5.824;2023-02-15T10:13:00;39.1;;;19.9;;
60718;SDS011;46567;51.660;5.824;2023-02-15T10:19:23;36.9;;;20.5;;
60718;SDS011;46567;51.660;5.824;2023-02-15T10:25:39;36.8;;;19.4;;
60718;SDS011;46567;51.660;5.824;2023-02-15T10:27:24;36.8;;;19.1;;
60718;SDS011;46567;51.660;5.824;2023-02-15T10:28:03;33.8;;;19.0;;
60718;SDS011;46567;51.660;5.824;2023-02-15T10:33:02;35.8;;;19.8;;
60718;SDS011;46567;51.660;5.824;2023-02-15T10:38:24;36.6;;;20.1;;
60718;SDS011;46567;51.660;5.824;2023-02-15T10:45:01;34.6;;;19.1;;
60718;SDS011;46567;51.660;5.824;2023-02-15T10:50:23;34.1;;;19.5;;
60718;SDS011;46567;51.660;5.824;2023-02-15T10:55:47;34.0;;;19.0;;
60718;SDS011;46567;51.660;5.824;2023-02-15T11:06:11;37.0;;;19.3;;
60718;SDS011;46567;51.660;5.824;2023-02-15T11:08:12;34.4;;;18.4;;
60718;SDS011;46567;51.660;5.824;2023-02-15T11:13:02;31.1;;;18.2;;
60718;SDS011;46567;51.660;5.824;2023-02-15T11:18:06;34.5;;;18.8;;
60718;SDS011;46567;51.660;5.824;2023-02-15T11:23:01;31.0;;;18.6;;
60718;SDS011;46567;51.660;5.824;2023-02-15T11:28:03;32.0;;;17.9;;
60718;SDS011;46567;51.660;5.824;2023-02-15T11:33:02;31.9;;;18.6;;
60718;SDS011;46567;51.660;5.824;2023-02-15T11:38:14;31.8;;;18.8;;
60718;SDS011;46567;51.660;5.824;2023-02-15T11:43:02;31.6;;;18.5;;
60718;SDS011;46567;51.660;5.824;2023-02-15T11:48:01;32.5;;;18.8;;
60718;SDS011;46567;51.660;5.824;2023-02-15T11:53:02;30.9;;;18.5;;
60718;SDS011;46567;51.660;5.824;2023-02-15T11:58:04;33.9;;;18.9;;
60718;SDS011;46567;51.660;5.824;2023-02-15T12:03:02;33.4;;;18.4;;
60718;SDS011;46567;51.660;5.824;2023-02-15T12:08:01;31.6;;;18.5;;
60718;SDS011;46567;51.660;5.824;2023-02-15T12:13:16;28.1;;;17.9;;
60718;SDS011;46567;51.660;5.824;2023-02-15T12:18:01;31.1;;;18.1;;
60718;SDS011;46567;51.660;5.824;2023-02-15T12:23:01;31.8;;;18.5;;
60718;SDS011;46567;51.660;5.824;2023-02-15T12:28:01;31.5;;;19.1;;
60718;SDS011;46567;51.660;5.824;2023-02-15T12:33:03;31.7;;;17.5;;
60718;SDS011;46567;51.660;5.824;2023-02-15T12:38:05;30.5;;;17.9;;
60718;SDS011;46567;51.660;5.824;2023-02-15T12:43:01;32.5;;;18.9;;
60718;SDS011;46567;51.660;5.824;2023-02-15T12:48:13;30.7;;;18.3;;
60718;SDS011;46567;51.660;5.824;2023-02-15T12:53:19;28.0;;;17.7;;
60718;SDS011;46567;51.660;5.824;2023-02-15T12:58:15;30.5;;;18.7;;
60718;SDS011;46567;51.660;5.824;2023-02-15T13:03:01;30.9;;;19.9;;
60718;SDS011;46567;51.660;5.824;2023-02-15T13:08:02;31.6;;;19.5;;
60718;SDS011;46567;51.660;5.824;2023-02-15T13:13:01;30.5;;;18.8;;
60718;SDS011;46567;51.660;5.824;2023-02-15T13:18:01;31.9;;;19.2;;
60718;SDS011;46567;51.660;5.824;2023-02-15T13:23:01;32.6;;;20.1;;
60718;SDS011;46567;51.660;5.824;2023-02-15T13:28:04;32.5;;;19.3;;
60718;SDS011;46567;51.660;5.824;2023-02-15T13:33:05;30.6;;;18.9;;
60718;SDS011;46567;51.660;5.824;2023-02-15T13:38:22;29.7;;;19.0;;
60718;SDS011;46567;51.660;5.824;2023-02-15T13:43:02;34.8;;;19.9;;
60718;SDS011;46567;51.660;5.824;2023-02-15T13:49:12;32.0;;;18.7;;
60718;SDS011;46567;51.660;5.824;2023-02-15T13:54:57;40.5;;;20.0;;
60718;SDS011;46567;51.660;5.824;2023-02-15T14:00:35;32.3;;;18.9;;
60718;SDS011;46567;51.660;5.824;2023-02-15T14:06:47;31.9;;;19.1;;
60718;SDS011;46567;51.660;5.824;2023-02-15T14:12:16;29.5;;;18.6;;
60718;SDS011;46567;51.660;5.824;2023-02-15T14:17:50;31.0;;;19.7;;
60718;SDS011;46567;51.660;5.824;2023-02-15T14:22:21;35.0;;;20.4;;
60718;SDS011;46567;51.660;5.824;2023-02-15T14:27:14;33.5;;;20.6;;
60718;SDS011;46567;51.660;5.824;2023-02-15T14:30:52;34.3;;;19.7;;
60718;SDS011;46567;51.660;5.824;2023-02-15T14:33:04;31.8;;;20.5;;
60718;SDS011;46567;51.660;5.824;2023-02-15T14:38:07;32.6;;;20.7;;
60718;SDS011;46567;51.660;5.824;2023-02-15T14:43:20;32.6;;;20.2;;
60718;SDS011;46567;51.660;5.824;2023-02-15T14:48:02;30.1;;;20.1;;
60718;SDS011;46567;51.660;5.824;2023-02-15T14:53:37;33.8;;;20.8;;
60718;SDS011;46567;51.660;5.824;2023-02-15T14:58:01;35.6;;;21.7;;
60718;SDS011;46567;51.660;5.824;2023-02-15T15:03:01;32.1;;;20.0;;
60718;SDS011;46567;51.660;5.824;2023-02-15T15:08:01;29.0;;;18.8;;
60718;SDS011;46567;51.660;5.824;2023-02-15T15:13:55;33.6;;;18.9;;
60718;SDS011;46567;51.660;5.824;2023-02-15T15:18:04;32.1;;;19.1;;
60718;SDS011;46567;51.660;5.824;2023-02-15T15:23:38;32.5;;;19.8;;
60718;SDS011;46567;51.660;5.824;2023-02-15T15:28:01;32.3;;;19.6;;
60718;SDS011;46567;51.660;5.824;2023-02-15T15:33:11;32.5;;;19.2;;
60718;SDS011;46567;51.660;5.824;2023-02-15T15:41:17;31.2;;;18.9;;
60718;SDS011;46567;51.660;5.824;2023-02-15T15:47:43;33.6;;;19.6;;
60718;SDS011;46567;51.660;5.824;2023-02-15T15:48:46;34.3;;;18.6;;
60718;SDS011;46567;51.660;5.824;2023-02-15T15:53:03;35.8;;;19.0;;
60718;SDS011;46567;51.660;5.824;2023-02-15T15:58:05;32.8;;;18.2;;
60718;SDS011;46567;51.660;5.824;2023-02-15T16:03:01;32.1;;;17.3;;
60718;SDS011;46567;51.660;5.824;2023-02-15T16:08:01;33.9;;;17.3;;
60718;SDS011;46567;51.660;5.824;2023-02-15T16:13:01;30.8;;;16.7;;
60718;SDS011;46567;51.660;5.824;2023-02-15T16:18:01;27.6;;;16.0;;
60718;SDS011;46567;51.660;5.824;2023-02-15T16:23:07;34.1;;;17.7;;
60718;SDS011;46567;51.660;5.824;2023-02-15T16:28:06;32.2;;;17.6;;
60718;SDS011;46567;51.660;5.824;2023-02-15T16:33:08;33.0;;;17.3;;
60718;SDS011;46567;51.660;5.824;2023-02-15T16:38:01;33.1;;;17.9;;
60718;SDS011;46567;51.660;5.824;2023-02-15T16:43:02;34.8;;;17.8;;
60718;SDS011;46567;51.660;5.824;2023-02-15T16:48:01;35.5;;;18.3;;
60718;SDS011;46567;51.660;5.824;2023-02-15T16:53:01;33.8;;;18.8;;
60718;SDS011;46567;51.660;5.824;2023-02-15T16:58:02;32.7;;;18.3;;
60718;SDS011;46567;51.660;5.824;2023-02-15T17:03:02;33.4;;;18.4;;
60718;SDS011;46567;51.660;5.824;2023-02-15T17:08:17;35.3;;;18.9;;
60718;SDS011;46567;51.660;5.824;2023-02-15T17:13:01;34.0;;;19.8;;
60718;SDS011;46567;51.660;5.824;2023-02-15T17:18:02;34.9;;;19.3;;
60718;SDS011;46567;51.660;5.824;2023-02-15T17:23:01;40.5;;;20.2;;
60718;SDS011;46567;51.660;5.824;2023-02-15T17:28:01;37.4;;;20.4;;
60718;SDS011;46567;51.660;5.824;2023-02-15T17:33:03;33.5;;;19.3;;
60718;SDS011;46567;51.660;5.824;2023-02-15T17:38:17;37.5;;;19.6;;
60718;SDS011;46567;51.660;5.824;2023-02-15T17:43:01;32.9;;;19.8;;
60718;SDS011;46567;51.660;5.824;2023-02-15T17:48:02;37.9;;;20.8;;
60718;SDS011;46567;51.660;5.824;2023-02-15T17:53:01;36.1;;;20.5;;
60718;SDS011;46567;51.660;5.824;2023-02-15T17:58:04;35.1;;;20.9;;
60718;SDS011;46567;51.660;5.824;2023-02-15T18:03:01;33.9;;;20.3;;
60718;SDS011;46567;51.660;5.824;2023-02-15T18:08:01;38.7;;;21.3;;
60718;SDS011;46567;51.660;5.824;2023-02-15T18:13:01;37.9;;;19.5;;
60718;SDS011;46567;51.660;5.824;2023-02-15T18:18:01;35.6;;;19.6;;
60718;SDS011;46567;51.660;5.824;2023-02-15T18:23:01;35.9;;;19.9;;
60718;SDS011;46567;51.660;5.824;2023-02-15T18:28:01;34.7;;;20.1;;
60718;SDS011;46567;51.660;5.824;2023-02-15T18:33:01;35.4;;;19.1;;
60718;SDS011;46567;51.660;5.824;2023-02-15T18:38:01;36.8;;;19.6;;
60718;SDS011;46567;51.660;5.824;2023-02-15T18:43:01;34.2;;;19.8;;
60718;SDS011;46567;51.660;5.824;2023-02-15T18:48:01;35.8;;;20.4;;
60718;SDS011;46567;51.660;5.824;2023-02-15T18:53:02;38.8;;;20.5;;
60718;SDS011;46567;51.660;5.824;2023-02-15T18:58:01;37.6;;;20.9;;
60718;SDS011;46567;51.660;5.824;2023-02-15T19:03:01;33.7;;;19.9;;
60718;SDS011;46567;51.660;5.824;2023-02-15T19:08:01;38.5;;;20.8;;
60718;SDS011;46567;51.660;5.824;2023-02-15T19:13:01;37.0;;;20.8;;
60718;SDS011;46567;51.660;5.824;2023-02-15T19:18:01;38.3;;;21.7;;
60718;SDS011;46567;51.660;5.824;2023-02-15T19:23:01;37.4;;;21.3;;
60718;SDS011;46567;51.660;5.824;2023-02-15T19:28:01;38.2;;;21.4;;
60718;SDS011;46567;51.660;5.824;2023-02-15T19:33:01;38.1;;;21.6;;
60718;SDS011;46567;51.660;5.824;2023-02-15T19:38:01;37.1;;;21.6;;
60718;SDS011;46567;51.660;5.824;2023-02-15T19:43:01;38.8;;;21.5;;
60718;SDS011;46567;51.660;5.824;2023-02-15T19:48:01;39.9;;;23.0;;
60718;SDS011;46567;51.660;5.824;2023-02-15T19:53:01;39.3;;;21.9;;
60718;SDS011;46567;51.660;5.824;2023-02-15T19:58:01;41.2;;;23.4;;
60718;SDS011;46567;51.660;5.824;2023-02-15T20:03:01;38.5;;;22.2;;
60718;SDS011;46567;51.660;5.824;2023-02-15T20:08:01;40.5;;;23.5;;
60718;SDS011;46567;51.660;5.824;2023-02-15T20:13:01;39.6;;;24.4;;
60718;SDS011;46567;51.660;5.824;2023-02-15T20:18:01;40.8;;;24.6;;
60718;SDS011;46567;51.660;5.824;2023-02-15T20:23:01;42.8;;;24.4;;
60718;SDS011;46567;51.660;5.824;2023-02-15T20:28:01;43.2;;;23.8;;
60718;SDS011;46567;51.660;5.824;2023-02-15T20:33:01;42.0;;;24.0;;
60718;SDS011;46567;51.660;5.824;2023-02-15T20:38:01;41.7;;;23.8;;
60718;SDS011;46567;51.660;5.824;2023-02-15T20:43:01;41.2;;;23.8;;
60718;SDS011;46567;51.660;5.824;2023-02-15T20:48:01;43.3;;;23.4;;
60718;SDS011;46567;51.660;5.824;2023-02-15T20:53:01;44.3;;;23.4;;
60718;SDS011;46567;51.660;5.824;2023-02-15T20:58:01;42.1;;;24.0;;
60718;SDS011;46567;51.660;5.824;2023-02-15T21:03:01;41.1;;;23.8;;
60718;SDS011;46567;51.660;5.824;2023-02-15T21:08:05;46.5;;;24.9;;
60718;SDS011;46567;51.660;5.824;2023-02-15T21:13:01;40.6;;;24.3;;
60718;SDS011;46567;51.660;5.824;2023-02-15T21:18:05;43.0;;;24.5;;
60718;SDS011;46567;51.660;5.824;2023-02-15T21:23:02;46.9;;;26.5;;
60718;SDS011;46567;51.660;5.824;2023-02-15T21:28:01;44.8;;;25.2;;
60718;SDS011;46567;51.660;5.824;2023-02-15T21:33:01;45.5;;;25.6;;
60718;SDS011;46567;51.660;5.824;2023-02-15T21:38:01;42.7;;;25.3;;
60718;SDS011;46567;51.660;5.824;2023-02-15T21:43:01;45.5;;;24.7;;
60718;SDS011;46567;51.660;5.824;2023-02-15T21:48:01;46.2;;;26.0;;
60718;SDS011;46567;51.660;5.824;2023-02-15T21:53:01;48.1;;;26.2;;
60718;SDS011;46567;51.660;5.824;2023-02-15T21:58:01;46.9;;;25.7;;
60718;SDS011;46567;51.660;5.824;2023-02-15T22:03:01;42.9;;;26.1;;
60718;SDS011;46567;51.660;5.824;2023-02-15T22:08:01;43.9;;;25.4;;
60718;SDS011;46567;51.660;5.824;2023-02-15T22:13:02;49.0;;;26.0;;
60718;SDS011;46567;51.660;5.824;2023-02-15T22:18:02;50.5;;;26.1;;
60718;SDS011;46567;51.660;5.824;2023-02-15T22:23:01;43.6;;;24.5;;
60718;SDS011;46567;51.660;5.824;2023-02-15T22:28:01;41.5;;;24.4;;
60718;SDS011;46567;51.660;5.824;2023-02-15T22:33:02;46.7;;;24.7;;
60718;SDS011;46567;51.660;5.824;2023-02-15T22:38:01;44.9;;;24.6;;
60718;SDS011;46567;51.660;5.824;2023-02-15T22:43:03;43.8;;;24.2;;
60718;SDS011;46567;51.660;5.824;2023-02-15T22:48:01;51.2;;;25.6;;
60718;SDS011;46567;51.660;5.824;2023-02-15T22:53:02;47.8;;;25.2;;
60718;SDS011;46567;51.660;5.824;2023-02-15T22:58:01;43.3;;;25.2;;
60718;SDS011;46567;51.660;5.824;2023-02-15T23:03:04;47.7;;;25.4;;
60718;SDS011;46567;51.660;5.824;2023-02-15T23:08:01;44.1;;;25.0;;
60718;SDS011;46567;51.660;5.824;2023-02-15T23:13:13;44.0;;;25.8;;
60718;SDS011;46567;51.660;5.824;2023-02-15T23:18:09;43.3;;;25.1;;
60718;SDS011;46567;51.660;5.824;2023-02-15T23:23:01;46.4;;;25.6;;
60718;SDS011;46567;51.660;5.824;2023-02-15T23:28:02;45.6;;;25.8;;
60718;SDS011;46567;51.660;5.824;2023-02-15T23:33:01;45.6;;;25.6;;
60718;SDS011;46567;51.660;5.824;2023-02-15T23:38:01;47.2;;;26.1;;
60718;SDS011;46567;51.660;5.824;2023-02-15T23:43:01;45.6;;;26.2;;
60718;SDS011;46567;51.660;5.824;2023-02-15T23:48:01;44.5;;;25.3;;
60718;SDS011;46567;51.660;5.824;2023-02-15T23:53:01;47.1;;;24.6;;
60718;SDS011;46567;51.660;5.824;2023-02-15T23:58:01;46.3;;;24.6;;
